createdAt,value
2023-04-24T00:00:27.335Z,11.05
2023-04-24T00:03:16.804Z,12.55
2023-04-24T00:06:06.450Z,10.65
2023-04-24T00:08:56.477Z,10.52
2023-04-24T00:11:45.419Z,11.15
2023-04-24T00:14:35.991Z,13.75
2023-04-24T00:17:24.755Z,13.25
2023-04-24T00:20:15.265Z,10.45
2023-04-24T00:23:04.519Z,12.15
2023-04-24T00:25:54.715Z,11.10
2023-04-24T00:28:43.347Z,16.20
2023-04-24T00:31:32.381Z,10.35
2023-04-24T00:34:21.413Z,13.95
2023-04-24T00:37:10.452Z,10.77
2023-04-24T00:39:59.510Z,12.68
2023-04-24T00:42:49.825Z,9.80
2023-04-24T00:45:38.571Z,12.88
2023-04-24T00:48:27.633Z,10.10
2023-04-24T00:51:19.227Z,10.68
2023-04-24T00:54:07.871Z,14.02
2023-04-24T00:56:58.071Z,13.00
2023-04-24T00:59:48.607Z,12.13
2023-04-24T01:02:37.380Z,11.65
2023-04-24T01:05:26.338Z,11.48
2023-04-24T01:08:16.579Z,11.23
2023-04-24T01:11:06.295Z,10.18
2023-04-24T01:14:00.005Z,12.90
2023-04-24T01:16:50.022Z,10.18
2023-04-24T01:19:46.098Z,12.70
2023-04-24T01:22:40.258Z,12.13
2023-04-24T01:25:30.216Z,13.75
2023-04-24T01:28:19.999Z,10.13
2023-04-24T01:31:09.208Z,13.98
2023-04-24T01:33:58.986Z,12.00
2023-04-24T01:36:48.761Z,11.35
2023-04-24T01:39:39.158Z,11.80
2023-04-24T01:42:28.413Z,11.80
2023-04-24T01:45:17.244Z,14.65
2023-04-24T01:48:06.194Z,13.30
2023-04-24T01:50:55.685Z,12.45
2023-04-24T01:53:44.503Z,12.52
2023-04-24T01:56:36.348Z,11.38
2023-04-24T01:59:27.627Z,15.00
2023-04-24T02:02:16.934Z,14.13
2023-04-24T02:05:08.309Z,14.10
2023-04-24T02:07:58.737Z,14.40
2023-04-24T02:10:47.733Z,12.75
2023-04-24T02:13:37.801Z,12.88
2023-04-24T02:16:27.204Z,12.52
2023-04-24T02:19:18.980Z,13.73
2023-04-24T02:22:07.687Z,11.48
2023-04-24T02:24:57.357Z,13.05
2023-04-24T02:27:46.178Z,13.85
2023-04-24T02:30:36.580Z,16.38
2023-04-24T02:33:25.341Z,11.43
2023-04-24T02:36:14.850Z,14.85
2023-04-24T02:39:04.762Z,13.43
2023-04-24T02:41:54.885Z,16.38
2023-04-24T02:44:43.694Z,11.93
2023-04-24T02:47:34.046Z,12.05
2023-04-24T02:50:22.819Z,15.35
2023-04-24T02:53:11.877Z,16.10
2023-04-24T02:56:01.107Z,12.32
2023-04-24T02:58:49.859Z,14.10
2023-04-24T03:01:38.858Z,13.60
2023-04-24T03:04:29.222Z,13.95
2023-04-24T03:07:18.065Z,11.38
2023-04-24T03:10:08.677Z,11.85
2023-04-24T03:12:57.345Z,14.32
2023-04-24T03:15:47.918Z,14.90
2023-04-24T03:18:37.734Z,15.13
2023-04-24T03:21:29.447Z,15.02
2023-04-24T03:24:18.173Z,11.85
2023-04-24T03:27:07.056Z,12.68
2023-04-24T03:30:13.779Z,13.73
2023-04-24T03:33:10.879Z,12.82
2023-04-24T03:36:06.489Z,11.70
2023-04-24T03:39:03.237Z,13.20
2023-04-24T03:41:55.775Z,14.75
2023-04-24T03:44:50.571Z,12.70
2023-04-24T03:47:39.553Z,14.25
2023-04-24T03:50:30.269Z,15.32
2023-04-24T03:53:20.854Z,15.68
2023-04-24T03:56:15.266Z,11.02
2023-04-24T03:59:04.109Z,16.70
2023-04-24T04:01:53.248Z,12.77
2023-04-24T04:04:43.114Z,18.63
2023-04-24T04:07:32.618Z,15.82
2023-04-24T04:10:21.307Z,14.93
2023-04-24T04:13:11.655Z,14.15
2023-04-24T04:16:00.646Z,15.18
2023-04-24T04:18:49.921Z,17.10
2023-04-24T04:21:39.033Z,14.85
2023-04-24T04:24:39.434Z,14.68
2023-04-24T04:27:29.663Z,17.13
2023-04-24T04:30:25.902Z,14.23
2023-04-24T04:33:20.286Z,19.50
2023-04-24T04:36:09.781Z,15.98
2023-04-24T04:39:04.319Z,14.60
2023-04-24T04:42:16.550Z,15.85
2023-04-24T04:45:07.279Z,18.35
2023-04-24T04:48:10.048Z,14.13
2023-04-24T04:50:59.742Z,16.10
2023-04-24T04:53:49.614Z,13.38
2023-04-24T04:56:38.458Z,14.70
2023-04-24T04:59:27.498Z,13.18
2023-04-24T05:02:23.067Z,11.68
2023-04-24T05:05:14.258Z,14.27
2023-04-24T05:08:04.516Z,15.63
2023-04-24T05:10:54.537Z,12.77
2023-04-24T05:13:43.792Z,15.18
2023-04-24T05:16:47.209Z,16.08
2023-04-24T05:19:39.114Z,13.93
2023-04-24T05:22:31.038Z,13.52
2023-04-24T05:25:19.901Z,13.73
2023-04-24T05:28:17.695Z,12.90
2023-04-24T05:31:13.945Z,18.55
2023-04-24T05:34:03.270Z,15.45
2023-04-24T05:36:52.731Z,16.75
2023-04-24T05:39:44.107Z,13.98
2023-04-24T05:42:33.554Z,12.15
2023-04-24T05:45:22.641Z,13.93
2023-04-24T05:48:11.348Z,13.40
2023-04-24T05:50:59.998Z,12.45
2023-04-24T05:53:49.256Z,12.73
2023-04-24T05:56:41.244Z,13.98
2023-04-24T05:59:33.069Z,13.38
2023-04-24T06:02:22.285Z,13.10
2023-04-24T06:05:11.222Z,16.83
2023-04-24T06:08:00.005Z,13.45
2023-04-24T06:10:54.030Z,12.80
2023-04-24T06:13:45.661Z,15.13
2023-04-24T06:16:52.718Z,19.00
2023-04-24T06:20:02.543Z,13.90
2023-04-24T06:22:51.267Z,15.52
2023-04-24T06:25:40.811Z,13.75
2023-04-24T06:28:33.512Z,18.08
2023-04-24T06:31:23.603Z,12.07
2023-04-24T06:34:14.672Z,14.40
2023-04-24T06:37:03.588Z,14.52
2023-04-24T06:39:52.897Z,13.20
2023-04-24T06:42:41.674Z,18.48
2023-04-24T06:45:32.113Z,13.07
2023-04-24T06:48:22.175Z,15.63
2023-04-24T06:51:11.158Z,15.27
2023-04-24T06:53:59.897Z,12.90
2023-04-24T06:56:49.892Z,15.50
2023-04-24T06:59:39.148Z,11.88
2023-04-24T07:02:28.525Z,13.75
2023-04-24T07:05:20.988Z,15.93
2023-04-24T07:08:14.625Z,14.27
2023-04-24T07:11:03.601Z,15.20
2023-04-24T07:13:52.329Z,20.73
2023-04-24T07:16:41.208Z,14.32
2023-04-24T07:19:30.119Z,13.43
2023-04-24T07:22:20.527Z,13.57
2023-04-24T07:25:10.288Z,16.23
2023-04-24T07:27:59.168Z,17.13
2023-04-24T07:30:48.035Z,14.30
2023-04-24T07:33:37.415Z,14.15
2023-04-24T07:36:27.117Z,18.13
2023-04-24T07:39:17.532Z,17.80
2023-04-24T07:42:06.354Z,14.25
2023-04-24T07:44:55.145Z,15.27
2023-04-24T07:47:46.730Z,15.93
2023-04-24T07:50:35.986Z,10.63
2023-04-24T07:53:24.736Z,14.27
2023-04-24T07:56:18.228Z,13.60
2023-04-24T07:59:07.425Z,16.50
2023-04-24T08:01:56.769Z,13.82
2023-04-24T08:04:46.612Z,13.95
2023-04-24T08:07:36.405Z,16.88
2023-04-24T08:10:26.093Z,13.77
2023-04-24T08:13:16.223Z,20.85
2023-04-24T08:16:05.090Z,15.82
2023-04-24T08:18:55.657Z,13.77
2023-04-24T08:21:44.400Z,11.52
2023-04-24T08:24:33.320Z,13.38
2023-04-24T08:27:22.005Z,11.90
2023-04-24T08:30:24.958Z,13.15
2023-04-24T08:33:14.212Z,10.52
2023-04-24T08:36:03.931Z,9.95
2023-04-24T08:38:52.808Z,15.18
2023-04-24T08:41:44.220Z,16.20
2023-04-24T08:44:34.707Z,10.23
2023-04-24T08:47:26.588Z,15.27
2023-04-24T08:50:16.432Z,10.55
2023-04-24T08:53:05.380Z,16.75
2023-04-24T08:55:56.605Z,11.52
2023-04-24T08:58:46.401Z,15.43
2023-04-24T09:01:36.215Z,15.25
2023-04-24T09:04:27.882Z,17.33
2023-04-24T09:07:19.427Z,16.00
2023-04-24T09:10:10.158Z,24.00
2023-04-24T09:13:02.477Z,16.33
2023-04-24T09:15:51.130Z,14.60
2023-04-24T09:18:39.852Z,17.42
2023-04-24T09:21:34.869Z,21.73
2023-04-24T09:24:24.664Z,16.35
2023-04-24T09:27:15.857Z,13.35
2023-04-24T09:30:06.095Z,17.15
2023-04-24T09:33:13.086Z,12.48
2023-04-24T09:36:03.507Z,17.15
2023-04-24T09:38:59.773Z,11.25
2023-04-24T09:41:49.772Z,9.38
2023-04-24T09:44:38.683Z,14.18
2023-04-24T09:47:27.584Z,15.23
2023-04-24T09:50:18.888Z,13.38
2023-04-24T09:53:10.068Z,12.52
2023-04-24T09:56:05.475Z,12.48
2023-04-24T09:58:54.254Z,11.50
2023-04-24T10:01:45.740Z,12.98
2023-04-24T10:04:34.527Z,12.85
2023-04-24T10:07:23.176Z,10.07
2023-04-24T10:10:13.554Z,10.60
2023-04-24T10:13:04.263Z,12.75
2023-04-24T10:15:53.793Z,12.90
2023-04-24T10:18:43.265Z,13.57
2023-04-24T10:21:32.427Z,10.88
2023-04-24T10:24:22.632Z,11.73
2023-04-24T10:27:12.540Z,10.85
2023-04-24T10:30:03.947Z,12.50
2023-04-24T10:32:52.727Z,12.00
2023-04-24T10:35:44.282Z,13.63
2023-04-24T10:38:34.069Z,16.38
2023-04-24T10:41:24.544Z,9.82
2023-04-24T10:44:15.211Z,11.63
2023-04-24T10:47:05.645Z,8.70
2023-04-24T10:49:54.824Z,11.52
2023-04-24T10:52:47.208Z,8.52
2023-04-24T10:55:47.208Z,6.90
2023-04-24T10:58:41.355Z,9.63
2023-04-24T11:01:31.569Z,8.55
2023-04-24T11:04:32.519Z,8.65
2023-04-24T11:07:23.608Z,12.15
2023-04-24T11:10:28.058Z,10.32
2023-04-24T11:13:18.398Z,8.52
2023-04-24T11:16:17.731Z,12.30
2023-04-24T11:19:08.985Z,9.85
2023-04-24T11:22:02.911Z,8.77
2023-04-24T11:24:53.044Z,9.10
2023-04-24T11:27:49.086Z,11.05
2023-04-24T11:30:42.079Z,8.07
2023-04-24T11:33:33.659Z,9.15
2023-04-24T11:36:22.597Z,8.13
2023-04-24T11:39:16.282Z,7.47
2023-04-24T11:42:07.573Z,6.00
2023-04-24T11:44:58.197Z,7.28
2023-04-24T11:47:47.332Z,6.63
2023-04-24T11:50:36.277Z,7.72
2023-04-24T11:53:25.305Z,6.97
2023-04-24T11:56:20.733Z,10.35
2023-04-24T11:59:10.352Z,12.60
2023-04-24T12:01:59.171Z,8.38
2023-04-24T12:04:48.207Z,10.90
2023-04-24T12:07:44.239Z,9.68
2023-04-24T12:10:35.797Z,10.50
2023-04-24T12:13:28.064Z,6.95
2023-04-24T12:16:16.926Z,10.10
2023-04-24T12:19:07.290Z,6.95
2023-04-24T12:22:03.353Z,7.18
2023-04-24T12:25:03.821Z,9.10
2023-04-24T12:27:56.260Z,8.40
2023-04-24T12:30:50.056Z,11.43
2023-04-24T12:33:39.817Z,7.45
2023-04-24T12:36:28.874Z,9.93
2023-04-24T12:39:18.732Z,8.45
2023-04-24T12:42:07.547Z,10.32
2023-04-24T12:45:00.039Z,23.80
2023-04-24T12:47:51.667Z,47.78
2023-04-24T12:50:40.970Z,39.78
2023-04-24T12:53:32.345Z,22.92
2023-04-24T12:56:21.716Z,15.02
2023-04-24T12:59:10.468Z,19.70
2023-04-24T13:01:59.219Z,11.30
2023-04-24T13:04:49.721Z,16.02
2023-04-24T13:07:38.481Z,16.92
2023-04-24T13:10:27.229Z,19.25
2023-04-24T13:13:16.427Z,10.77
2023-04-24T13:16:05.720Z,16.13
2023-04-24T13:18:54.370Z,9.10
2023-04-24T13:21:44.718Z,8.77
2023-04-24T13:24:34.121Z,10.70
2023-04-24T13:27:22.898Z,10.57
2023-04-24T13:30:13.194Z,9.75
2023-04-24T13:33:02.246Z,5.70
2023-04-24T13:35:51.102Z,10.32
2023-04-24T13:38:41.533Z,10.43
2023-04-24T13:41:30.393Z,7.88
2023-04-24T13:44:20.484Z,7.75
2023-04-24T13:47:09.308Z,13.95
2023-04-24T13:49:58.149Z,7.05
2023-04-24T13:52:46.921Z,6.03
2023-04-24T13:55:37.136Z,5.40
2023-04-24T13:58:25.916Z,6.88
2023-04-24T14:01:16.080Z,7.57
2023-04-24T14:04:05.092Z,4.75
2023-04-24T14:06:53.843Z,5.50
2023-04-24T14:09:42.468Z,4.82
2023-04-24T14:12:32.592Z,7.95
2023-04-24T14:15:21.575Z,6.47
2023-04-24T14:18:10.375Z,4.65
2023-04-24T14:20:59.212Z,4.68
2023-04-24T14:23:47.936Z,4.72
2023-04-24T14:26:36.725Z,8.48
2023-04-24T14:29:27.076Z,5.10
2023-04-24T14:32:16.860Z,6.32
2023-04-24T14:35:06.616Z,5.13
2023-04-24T14:37:57.193Z,4.07
2023-04-24T14:41:05.375Z,4.93
2023-04-24T14:43:54.790Z,5.15
2023-04-24T14:46:45.635Z,5.65
2023-04-24T14:49:34.645Z,5.60
2023-04-24T14:52:23.515Z,7.55
2023-04-24T14:55:12.956Z,8.38
2023-04-24T14:58:02.015Z,4.90
2023-04-24T15:00:53.101Z,6.90
2023-04-24T15:03:43.587Z,7.15
2023-04-24T15:06:33.924Z,6.55
2023-04-24T15:09:23.489Z,7.15
2023-04-24T15:12:14.034Z,9.80
2023-04-24T15:15:02.947Z,6.72
2023-04-24T15:17:51.788Z,7.00
2023-04-24T15:20:42.451Z,9.68
2023-04-24T15:23:31.137Z,5.65
2023-04-24T15:26:20.226Z,9.00
2023-04-24T15:29:08.922Z,7.85
2023-04-24T15:31:57.571Z,6.72
2023-04-24T15:34:47.530Z,6.00
2023-04-24T15:37:40.475Z,6.05
2023-04-24T15:40:29.339Z,6.50
2023-04-24T15:43:18.618Z,3.85
2023-04-24T15:46:07.517Z,12.20
2023-04-24T15:48:56.452Z,4.95
2023-04-24T15:51:45.387Z,7.30
2023-04-24T15:54:35.429Z,7.38
2023-04-24T15:57:25.729Z,6.68
2023-04-24T16:00:16.368Z,6.07
2023-04-24T16:03:06.878Z,7.72
2023-04-24T16:05:57.426Z,7.13
2023-04-24T16:08:46.811Z,7.45
2023-04-24T16:11:39.677Z,7.75
2023-04-24T16:14:28.578Z,5.05
2023-04-24T16:17:17.851Z,8.00
2023-04-24T16:20:07.805Z,4.47
2023-04-24T16:22:56.768Z,7.47
2023-04-24T16:25:45.457Z,7.65
2023-04-24T16:28:35.980Z,8.18
2023-04-24T16:31:25.003Z,9.43
2023-04-24T16:34:16.645Z,7.93
2023-04-24T16:37:05.541Z,8.00
2023-04-24T16:39:55.406Z,8.80
2023-04-24T16:42:44.338Z,7.22
2023-04-24T16:45:34.573Z,6.47
2023-04-24T16:48:23.255Z,8.27
2023-04-24T16:51:14.981Z,8.15
2023-04-24T16:54:04.127Z,9.10
2023-04-24T16:56:53.878Z,8.20
2023-04-24T16:59:43.067Z,11.43
2023-04-24T17:02:33.794Z,9.00
2023-04-24T17:05:23.528Z,11.52
2023-04-24T17:08:15.103Z,5.10
2023-04-24T17:11:04.059Z,10.65
2023-04-24T17:13:53.241Z,11.40
2023-04-24T17:16:42.033Z,9.82
2023-04-24T17:19:32.547Z,7.55
2023-04-24T17:22:21.407Z,7.93
2023-04-24T17:25:10.618Z,7.53
2023-04-24T17:27:59.595Z,7.53
2023-04-24T17:30:48.341Z,9.45
2023-04-24T17:33:36.989Z,7.93
2023-04-24T17:36:27.172Z,6.95
2023-04-24T17:39:16.699Z,10.98
2023-04-24T17:42:05.614Z,7.60
2023-04-24T17:44:54.690Z,8.10
2023-04-24T17:47:43.517Z,5.60
2023-04-24T17:50:32.353Z,6.22
2023-04-24T17:53:22.946Z,11.95
2023-04-24T17:56:14.121Z,11.85
2023-04-24T17:59:03.673Z,7.22
2023-04-24T18:01:53.187Z,8.05
2023-04-24T18:04:43.255Z,9.73
2023-04-24T18:07:33.902Z,7.43
2023-04-24T18:10:24.184Z,8.40
2023-04-24T18:13:13.309Z,7.43
2023-04-24T18:16:02.667Z,10.85
2023-04-24T18:18:51.416Z,8.45
2023-04-24T18:21:40.149Z,9.88
2023-04-24T18:24:28.975Z,9.30
2023-04-24T18:27:25.188Z,8.77
2023-04-24T18:30:15.032Z,9.95
2023-04-24T18:33:04.302Z,7.13
2023-04-24T18:35:53.069Z,10.95
2023-04-24T18:38:41.811Z,8.90
2023-04-24T18:41:30.678Z,12.10
2023-04-24T18:44:21.359Z,14.13
2023-04-24T18:47:10.419Z,7.45
2023-04-24T18:49:59.358Z,7.60
2023-04-24T18:52:48.511Z,10.35
2023-04-24T18:55:37.318Z,10.68
2023-04-24T18:58:26.123Z,11.15
2023-04-24T19:01:16.757Z,6.85
2023-04-24T19:04:05.552Z,9.20
2023-04-24T19:06:54.334Z,9.50
2023-04-24T19:09:42.956Z,11.65
2023-04-24T19:12:32.005Z,9.70
2023-04-24T19:15:20.892Z,9.30
2023-04-24T19:18:11.348Z,9.68
2023-04-24T19:21:00.265Z,7.72
2023-04-24T19:23:50.508Z,9.55
2023-04-24T19:26:39.290Z,9.32
2023-04-24T19:29:31.742Z,7.18
2023-04-24T19:32:20.672Z,11.07
2023-04-24T19:35:11.496Z,14.20
2023-04-24T19:38:00.262Z,7.85
2023-04-24T19:40:52.996Z,9.48
2023-04-24T19:43:41.851Z,10.20
2023-04-24T19:46:31.191Z,12.55
2023-04-24T19:49:20.308Z,10.70
2023-04-24T19:52:10.631Z,10.00
2023-04-24T19:54:59.257Z,9.30
2023-04-24T19:57:48.073Z,11.35
2023-04-24T20:00:36.984Z,10.68
2023-04-24T20:06:20.489Z,11.32
2023-04-24T20:09:11.331Z,9.63
2023-04-24T20:12:00.294Z,14.20
2023-04-24T20:14:49.245Z,11.20
2023-04-24T20:17:38.177Z,12.80
2023-04-24T20:20:27.457Z,8.88
2023-04-24T20:23:16.369Z,9.85
2023-04-24T20:26:08.440Z,10.75
2023-04-24T20:28:57.453Z,12.90
2023-04-24T20:31:46.326Z,10.65
2023-04-24T20:34:35.834Z,12.30
2023-04-24T20:37:29.503Z,9.18
2023-04-24T20:40:19.630Z,16.13
2023-04-24T20:43:10.937Z,10.35
2023-04-24T20:46:00.000Z,12.35
2023-04-24T20:48:49.234Z,10.85
2023-04-24T20:51:38.457Z,11.73
2023-04-24T20:54:27.279Z,14.27
2023-04-24T20:57:16.542Z,12.27
2023-04-24T21:00:09.095Z,16.23
2023-04-24T21:03:01.301Z,15.60
2023-04-24T21:05:50.276Z,11.43
2023-04-24T21:08:39.004Z,10.55
2023-04-24T21:11:28.221Z,13.77
2023-04-24T21:14:16.841Z,13.25
2023-04-24T21:17:07.073Z,12.93
2023-04-24T21:19:57.322Z,13.32
2023-04-24T21:22:46.109Z,13.20
2023-04-24T21:25:36.045Z,10.93
2023-04-24T21:28:28.429Z,11.65
2023-04-24T21:31:17.542Z,13.25
2023-04-24T21:34:07.869Z,13.27
2023-04-24T21:36:56.500Z,11.45
2023-04-24T21:39:45.192Z,11.05
2023-04-24T21:42:37.200Z,14.98
2023-04-24T21:45:25.894Z,10.63
2023-04-24T21:48:14.961Z,11.95
2023-04-24T21:51:05.441Z,12.48
2023-04-24T21:53:54.267Z,10.77
2023-04-24T21:56:43.270Z,11.50
2023-04-24T21:59:32.562Z,12.27
2023-04-24T22:02:22.089Z,10.40
2023-04-24T22:05:15.807Z,10.80
2023-04-24T22:08:07.414Z,12.30
2023-04-24T22:10:59.992Z,12.02
2023-04-24T22:13:48.896Z,12.82
2023-04-24T22:16:37.958Z,14.20
2023-04-24T22:19:28.311Z,10.45
2023-04-24T22:22:17.054Z,11.85
2023-04-24T22:25:07.826Z,12.45
2023-04-24T22:27:56.907Z,13.50
2023-04-24T22:30:45.961Z,13.13
2023-04-24T22:33:34.743Z,12.13
2023-04-24T22:36:23.807Z,11.68
2023-04-24T22:39:15.893Z,13.00
2023-04-24T22:42:06.317Z,12.57
2023-04-24T22:44:58.500Z,11.18
2023-04-24T22:47:47.742Z,13.02
2023-04-24T22:50:36.510Z,10.93
2023-04-24T22:53:25.215Z,14.25
2023-04-24T22:56:14.296Z,12.43
2023-04-24T22:59:04.956Z,12.20
2023-04-24T23:01:53.655Z,14.18
2023-04-24T23:04:42.296Z,13.27
2023-04-24T23:07:31.157Z,11.00
2023-04-24T23:10:20.090Z,12.15
2023-04-24T23:13:08.974Z,11.95
2023-04-24T23:15:59.100Z,12.85
2023-04-24T23:18:48.118Z,16.15
2023-04-24T23:21:36.727Z,14.38
2023-04-24T23:24:25.582Z,15.73
2023-04-24T23:27:14.236Z,13.63
2023-04-24T23:30:03.075Z,11.95
2023-04-24T23:32:53.073Z,14.23
2023-04-24T23:35:41.796Z,14.63
2023-04-24T23:38:36.735Z,14.25
2023-04-24T23:41:35.981Z,13.00
2023-04-24T23:44:24.787Z,14.02
2023-04-24T23:47:13.425Z,15.98
2023-04-24T23:50:03.511Z,13.32
2023-04-24T23:52:52.167Z,15.35
2023-04-24T23:55:40.900Z,15.38
2023-04-24T23:58:29.551Z,16.15
